sensor_id;sensor_type;location;lat;lon;timestamp;pressure;altitude;pressure_sealevel;temperature;humidity
77147;BME280;66121;52.584;9.694;2023-01-13T00:02:08;99886.63;;;9.75;88.98
77147;BME280;66121;52.584;9.694;2023-01-13T00:04:34;99869.72;;;9.69;88.67
77147;BME280;66121;52.584;9.694;2023-01-13T00:06:59;99858.72;;;9.58;89.08
77147;BME280;66121;52.584;9.694;2023-01-13T00:09:24;99869.72;;;9.69;88.61
77147;BME280;66121;52.584;9.694;2023-01-13T00:11:50;99870.09;;;9.75;89.09
77147;BME280;66121;52.584;9.694;2023-01-13T00:14:15;99863.78;;;9.70;89.32
77147;BME280;66121;52.584;9.694;2023-01-13T00:16:41;99859.06;;;9.67;89.04
77147;BME280;66121;52.584;9.694;2023-01-13T00:19:07;99857.13;;;9.64;88.71
77147;BME280;66121;52.584;9.694;2023-01-13T00:21:32;99854.78;;;9.66;89.23
77147;BME280;66121;52.584;9.694;2023-01-13T00:23:57;99848.09;;;9.64;89.59
77147;BME280;66121;52.584;9.694;2023-01-13T00:26:25;99859.50;;;9.69;88.51
77147;BME280;66121;52.584;9.694;2023-01-13T00:28:56;99837.84;;;9.64;89.31
77147;BME280;66121;52.584;9.694;2023-01-13T00:31:22;99848.09;;;9.64;89.53
77147;BME280;66121;52.584;9.694;2023-01-13T00:33:48;99819.38;;;9.51;90.18
77147;BME280;66121;52.584;9.694;2023-01-13T00:36:16;99821.72;;;9.52;90.52
77147;BME280;66121;52.584;9.694;2023-01-13T00:38:43;99819.00;;;9.49;90.61
77147;BME280;66121;52.584;9.694;2023-01-13T00:41:12;99824.13;;;9.36;90.45
77147;BME280;66121;52.584;9.694;2023-01-13T00:43:37;99821.34;;;9.40;91.25
77147;BME280;66121;52.584;9.694;2023-01-13T00:46:05;99825.31;;;9.39;90.63
77147;BME280;66121;52.584;9.694;2023-01-13T00:48:31;99804.47;;;9.38;90.58
77147;BME280;66121;52.584;9.694;2023-01-13T00:51:09;99821.34;;;9.40;90.62
77147;BME280;66121;52.584;9.694;2023-01-13T00:53:37;99819.41;;;9.40;90.50
77147;BME280;66121;52.584;9.694;2023-01-13T00:56:17;99824.91;;;9.40;90.79
77147;BME280;66121;52.584;9.694;2023-01-13T00:58:44;99811.16;;;9.37;90.66
77147;BME280;66121;52.584;9.694;2023-01-13T01:01:20;99823.34;;;9.39;89.95
77147;BME280;66121;52.584;9.694;2023-01-13T01:03:47;99829.63;;;9.40;89.74
77147;BME280;66121;52.584;9.694;2023-01-13T01:06:15;99821.78;;;9.38;90.00
77147;BME280;66121;52.584;9.694;2023-01-13T01:08:41;99830.81;;;9.46;89.50
77147;BME280;66121;52.584;9.694;2023-01-13T01:11:12;99819.38;;;9.47;88.43
77147;BME280;66121;52.584;9.694;2023-01-13T01:13:38;99805.22;;;9.52;87.90
77147;BME280;66121;52.584;9.694;2023-01-13T01:16:09;99809.94;;;9.48;88.03
77147;BME280;66121;52.584;9.694;2023-01-13T01:18:39;99816.66;;;9.37;88.68
77147;BME280;66121;52.584;9.694;2023-01-13T01:21:04;99833.56;;;9.35;88.17
77147;BME280;66121;52.584;9.694;2023-01-13T01:23:31;99818.66;;;9.29;88.61
77147;BME280;66121;52.584;9.694;2023-01-13T01:26:20;99838.28;;;9.28;88.57
77147;BME280;66121;52.584;9.694;2023-01-13T01:28:47;99854.03;;;9.27;89.05
77147;BME280;66121;52.584;9.694;2023-01-13T01:33:41;99837.50;;;9.41;87.39
77147;BME280;66121;52.584;9.694;2023-01-13T01:36:07;99843.78;;;9.38;88.24
77147;BME280;66121;52.584;9.694;2023-01-13T01:38:33;99843.00;;;9.38;87.96
77147;BME280;66121;52.584;9.694;2023-01-13T01:40:58;99824.13;;;9.43;86.52
77147;BME280;66121;52.584;9.694;2023-01-13T01:48:53;99853.63;;;9.39;86.71
77147;BME280;66121;52.584;9.694;2023-01-13T01:51:20;99861.13;;;9.32;87.37
77147;BME280;66121;52.584;9.694;2023-01-13T01:53:45;99840.66;;;9.36;85.93
77147;BME280;66121;52.584;9.694;2023-01-13T01:56:12;99860.31;;;9.38;86.60
77147;BME280;66121;52.584;9.694;2023-01-13T01:58:46;99864.63;;;9.46;86.34
77147;BME280;66121;52.584;9.694;2023-01-13T02:01:14;99860.31;;;9.42;86.47
77147;BME280;66121;52.584;9.694;2023-01-13T02:03:43;99856.75;;;9.45;86.63
77147;BME280;66121;52.584;9.694;2023-01-13T02:06:11;99863.47;;;9.37;86.39
77147;BME280;66121;52.584;9.694;2023-01-13T02:08:38;99854.03;;;9.27;87.97
77147;BME280;66121;52.584;9.694;2023-01-13T02:11:04;99854.03;;;9.27;87.63
77147;BME280;66121;52.584;9.694;2023-01-13T02:13:29;99831.63;;;9.18;87.58
77147;BME280;66121;52.584;9.694;2023-01-13T02:16:07;99850.88;;;9.29;87.56
77147;BME280;66121;52.584;9.694;2023-01-13T02:18:48;99845.75;;;9.20;87.44
77147;BME280;66121;52.584;9.694;2023-01-13T02:21:47;99850.50;;;9.16;87.84
77147;BME280;66121;52.584;9.694;2023-01-13T02:30:39;99856.41;;;9.15;87.31
77147;BME280;66121;52.584;9.694;2023-01-13T02:33:32;99862.28;;;9.06;87.44
77147;BME280;66121;52.584;9.694;2023-01-13T02:36:19;99844.59;;;9.11;87.14
77147;BME280;66121;52.584;9.694;2023-01-13T02:38:55;99832.44;;;9.04;86.90
77147;BME280;66121;52.584;9.694;2023-01-13T02:41:35;99850.91;;;9.15;86.00
77147;BME280;66121;52.584;9.694;2023-01-13T02:44:26;99869.38;;;9.07;86.91
77147;BME280;66121;52.584;9.694;2023-01-13T02:46:56;99853.63;;;9.18;85.91
77147;BME280;66121;52.584;9.694;2023-01-13T02:49:36;99860.72;;;9.12;85.50
77147;BME280;66121;52.584;9.694;2023-01-13T02:52:08;99863.09;;;8.99;85.53
77147;BME280;66121;52.584;9.694;2023-01-13T02:54:36;99860.31;;;9.10;84.86
77147;BME280;66121;52.584;9.694;2023-01-13T02:57:04;99859.53;;;8.95;84.64
77147;BME280;66121;52.584;9.694;2023-01-13T02:59:33;99862.28;;;8.99;84.69
77147;BME280;66121;52.584;9.694;2023-01-13T03:01:59;99862.66;;;8.90;85.47
77147;BME280;66121;52.584;9.694;2023-01-13T03:10:00;99852.84;;;8.89;84.38
77147;BME280;66121;52.584;9.694;2023-01-13T03:12:36;99859.53;;;8.81;85.28
77147;BME280;66121;52.584;9.694;2023-01-13T03:15:16;99864.63;;;8.83;84.71
77147;BME280;66121;52.584;9.694;2023-01-13T03:17:59;99865.78;;;8.71;85.19
77147;BME280;66121;52.584;9.694;2023-01-13T03:20:31;99884.28;;;8.81;84.55
77147;BME280;66121;52.584;9.694;2023-01-13T03:23:04;99883.09;;;8.72;83.65
77147;BME280;66121;52.584;9.694;2023-01-13T03:25:36;99879.97;;;8.84;82.91
77147;BME280;66121;52.584;9.694;2023-01-13T03:28:18;99888.19;;;8.80;82.59
77147;BME280;66121;52.584;9.694;2023-01-13T03:31:00;99874.84;;;8.86;80.97
77147;BME280;66121;52.584;9.694;2023-01-13T03:33:31;99875.22;;;8.81;80.70
77147;BME280;66121;52.584;9.694;2023-01-13T03:36:01;99878.78;;;8.85;80.85
77147;BME280;66121;52.584;9.694;2023-01-13T03:38:35;99876.81;;;8.75;80.58
77147;BME280;66121;52.584;9.694;2023-01-13T03:41:05;99889.41;;;8.86;78.34
77147;BME280;66121;52.584;9.694;2023-01-13T03:43:41;99890.53;;;8.68;79.17
77147;BME280;66121;52.584;9.694;2023-01-13T03:47:17;99898.34;;;8.55;79.73
77147;BME280;66121;52.584;9.694;2023-01-13T03:49:27;99880.28;;;8.47;78.52
77147;BME280;66121;52.584;9.694;2023-01-13T03:51:56;99894.00;;;8.43;77.95
77147;BME280;66121;52.584;9.694;2023-01-13T03:54:26;99901.06;;;8.37;79.14
77147;BME280;66121;52.584;9.694;2023-01-13T03:57:01;99897.50;;;8.30;79.49
77147;BME280;66121;52.584;9.694;2023-01-13T03:59:33;99888.78;;;8.21;79.89
77147;BME280;66121;52.584;9.694;2023-01-13T04:02:12;99901.34;;;8.22;79.41
77147;BME280;66121;52.584;9.694;2023-01-13T04:04:59;99902.91;;;8.19;79.00
77147;BME280;66121;52.584;9.694;2023-01-13T04:07:45;99897.38;;;8.16;79.70
77147;BME280;66121;52.584;9.694;2023-01-13T04:10:17;99905.22;;;8.07;80.00
77147;BME280;66121;52.584;9.694;2023-01-13T04:12:49;99898.88;;;8.03;79.76
77147;BME280;66121;52.584;9.694;2023-01-13T04:15:28;99903.97;;;7.97;80.81
77147;BME280;66121;52.584;9.694;2023-01-13T04:18:01;99897.66;;;7.90;79.88
77147;BME280;66121;52.584;9.694;2023-01-13T04:20:26;99904.69;;;7.80;80.11
77147;BME280;66121;52.584;9.694;2023-01-13T04:22:52;99889.31;;;7.75;80.02
77147;BME280;66121;52.584;9.694;2023-01-13T04:25:17;99896.00;;;7.78;79.34
77147;BME280;66121;52.584;9.694;2023-01-13T04:27:42;99890.16;;;7.79;80.06
77147;BME280;66121;52.584;9.694;2023-01-13T04:30:09;99901.50;;;7.78;80.71
77147;BME280;66121;52.584;9.694;2023-01-13T04:32:34;99899.56;;;7.78;80.52
77147;BME280;66121;52.584;9.694;2023-01-13T04:35:01;99905.06;;;7.86;79.85
77147;BME280;66121;52.584;9.694;2023-01-13T04:37:27;99903.50;;;7.81;79.74
77147;BME280;66121;52.584;9.694;2023-01-13T04:39:53;99888.56;;;7.75;79.94
77147;BME280;66121;52.584;9.694;2023-01-13T04:42:18;99902.22;;;7.64;80.14
77147;BME280;66121;52.584;9.694;2023-01-13T04:44:43;99894.81;;;7.72;80.41
77147;BME280;66121;52.584;9.694;2023-01-13T04:47:09;99889.69;;;7.70;79.90
77147;BME280;66121;52.584;9.694;2023-01-13T04:49:34;99890.47;;;7.71;79.18
77147;BME280;66121;52.584;9.694;2023-01-13T04:51:59;99873.56;;;7.62;79.83
77147;BME280;66121;52.584;9.694;2023-01-13T04:54:26;99874.28;;;7.55;79.66
77147;BME280;66121;52.584;9.694;2023-01-13T04:56:51;99881.75;;;7.58;79.00
77147;BME280;66121;52.584;9.694;2023-01-13T04:59:17;99870.31;;;7.46;79.98
77147;BME280;66121;52.584;9.694;2023-01-13T05:01:42;99873.06;;;7.46;79.45
77147;BME280;66121;52.584;9.694;2023-01-13T05:04:07;99882.47;;;7.48;80.04
77147;BME280;66121;52.584;9.694;2023-01-13T05:06:33;99882.78;;;7.33;81.14
77147;BME280;66121;52.584;9.694;2023-01-13T05:08:58;99892.13;;;7.28;80.55
77147;BME280;66121;52.584;9.694;2023-01-13T05:11:24;99898.44;;;7.32;80.32
77147;BME280;66121;52.584;9.694;2023-01-13T05:14:08;99885.19;;;7.41;79.94
77147;BME280;66121;52.584;9.694;2023-01-13T05:16:54;99880.50;;;7.42;79.71
77147;BME280;66121;52.584;9.694;2023-01-13T05:19:36;99883.28;;;7.45;79.18
77147;BME280;66121;52.584;9.694;2023-01-13T05:22:05;99871.19;;;7.57;78.08
77147;BME280;66121;52.584;9.694;2023-01-13T05:24:49;99868.03;;;7.55;78.61
77147;BME280;66121;52.584;9.694;2023-01-13T05:27:33;99868.34;;;7.43;79.07
77147;BME280;66121;52.584;9.694;2023-01-13T05:29:58;99864.41;;;7.40;78.58
77147;BME280;66121;52.584;9.694;2023-01-13T05:32:24;99869.91;;;7.44;77.85
77147;BME280;66121;52.584;9.694;2023-01-13T05:34:52;99878.50;;;7.39;78.68
77147;BME280;66121;52.584;9.694;2023-01-13T05:37:17;99873.34;;;7.30;79.44
77147;BME280;66121;52.584;9.694;2023-01-13T05:39:43;99862.75;;;7.29;78.64
77147;BME280;66121;52.584;9.694;2023-01-13T05:42:26;99859.28;;;7.35;78.35
77147;BME280;66121;52.584;9.694;2023-01-13T05:45:11;99861.19;;;7.31;79.07
77147;BME280;66121;52.584;9.694;2023-01-13T05:47:36;99872.06;;;7.21;79.15
77147;BME280;66121;52.584;9.694;2023-01-13T05:50:02;99870.47;;;7.16;79.13
77147;BME280;66121;52.584;9.694;2023-01-13T05:52:28;99865.47;;;7.29;78.96
77147;BME280;66121;52.584;9.694;2023-01-13T05:54:53;99859.94;;;7.22;78.79
77147;BME280;66121;52.584;9.694;2023-01-13T05:57:18;99850.16;;;7.24;79.52
77147;BME280;66121;52.584;9.694;2023-01-13T05:59:44;99866.69;;;7.31;79.31
77147;BME280;66121;52.584;9.694;2023-01-13T06:02:09;99869.78;;;7.26;79.70
77147;BME280;66121;52.584;9.694;2023-01-13T06:04:34;99865.13;;;7.34;79.28
77147;BME280;66121;52.584;9.694;2023-01-13T06:07:00;99869.47;;;7.38;79.29
77147;BME280;66121;52.584;9.694;2023-01-13T06:09:25;99855.81;;;7.45;78.84
77147;BME280;66121;52.584;9.694;2023-01-13T06:11:50;99861.75;;;7.58;78.57
77147;BME280;66121;52.584;9.694;2023-01-13T06:14:15;99862.94;;;7.57;78.80
77147;BME280;66121;52.584;9.694;2023-01-13T06:16:41;99865.69;;;7.57;77.76
77147;BME280;66121;52.584;9.694;2023-01-13T06:19:07;99848.50;;;7.67;77.01
77147;BME280;66121;52.584;9.694;2023-01-13T06:21:34;99857.91;;;7.69;77.62
77147;BME280;66121;52.584;9.694;2023-01-13T06:23:59;99857.53;;;7.71;77.32
77147;BME280;66121;52.584;9.694;2023-01-13T06:26:26;99864.97;;;7.70;77.91
77147;BME280;66121;52.584;9.694;2023-01-13T06:28:53;99861.06;;;7.71;77.11
77147;BME280;66121;52.584;9.694;2023-01-13T06:31:18;99875.16;;;7.66;78.05
77147;BME280;66121;52.584;9.694;2023-01-13T06:33:48;99869.75;;;7.80;76.58
77147;BME280;66121;52.584;9.694;2023-01-13T06:36:19;99857.19;;;7.79;76.84
77147;BME280;66121;52.584;9.694;2023-01-13T06:38:48;99861.50;;;7.77;77.04
77147;BME280;66121;52.584;9.694;2023-01-13T06:41:15;99859.94;;;7.79;77.71
77147;BME280;66121;52.584;9.694;2023-01-13T06:43:40;99844.66;;;7.86;76.89
77147;BME280;66121;52.584;9.694;2023-01-13T06:46:06;99849.03;;;7.94;75.64
77147;BME280;66121;52.584;9.694;2023-01-13T06:48:33;99839.56;;;7.84;77.65
77147;BME280;66121;52.584;9.694;2023-01-13T06:51:00;99845.91;;;7.95;76.65
77147;BME280;66121;52.584;9.694;2023-01-13T06:53:25;99834.13;;;7.95;76.68
77147;BME280;66121;52.584;9.694;2023-01-13T06:55:51;99830.59;;;7.98;75.65
77147;BME280;66121;52.584;9.694;2023-01-13T06:58:16;99829.81;;;7.97;75.85
77147;BME280;66121;52.584;9.694;2023-01-13T07:00:41;99835.72;;;7.99;76.26
77147;BME280;66121;52.584;9.694;2023-01-13T07:03:11;99848.25;;;7.97;76.31
77147;BME280;66121;52.584;9.694;2023-01-13T07:05:38;99851.81;;;8.04;75.90
77147;BME280;66121;52.584;9.694;2023-01-13T07:08:04;99861.63;;;8.05;76.25
77147;BME280;66121;52.584;9.694;2023-01-13T07:10:30;99861.97;;;7.93;76.26
77147;BME280;66121;52.584;9.694;2023-01-13T07:12:59;99875.72;;;7.97;76.24
77147;BME280;66121;52.584;9.694;2023-01-13T07:15:54;99882.47;;;8.10;75.78
77147;BME280;66121;52.584;9.694;2023-01-13T07:18:20;99897.31;;;7.98;75.81
77147;BME280;66121;52.584;9.694;2023-01-13T07:20:51;99888.69;;;8.00;76.23
77147;BME280;66121;52.584;9.694;2023-01-13T07:23:17;99894.63;;;8.09;75.32
77147;BME280;66121;52.584;9.694;2023-01-13T07:25:42;99887.50;;;8.01;76.16
77147;BME280;66121;52.584;9.694;2023-01-13T07:28:07;99891.00;;;7.94;75.63
77147;BME280;66121;52.584;9.694;2023-01-13T07:30:32;99895.38;;;8.02;75.44
77147;BME280;66121;52.584;9.694;2023-01-13T07:32:58;99896.13;;;7.99;76.28
77147;BME280;66121;52.584;9.694;2023-01-13T07:35:23;99891.81;;;7.98;76.29
77147;BME280;66121;52.584;9.694;2023-01-13T07:37:48;99897.72;;;8.04;74.62
77147;BME280;66121;52.584;9.694;2023-01-13T07:40:14;99887.13;;;8.02;74.80
77147;BME280;66121;52.584;9.694;2023-01-13T07:42:39;99898.53;;;8.04;74.55
77147;BME280;66121;52.584;9.694;2023-01-13T07:45:23;99909.88;;;7.99;75.26
77147;BME280;66121;52.584;9.694;2023-01-13T07:47:50;99911.03;;;7.98;75.30
77147;BME280;66121;52.584;9.694;2023-01-13T07:50:16;99901.59;;;7.92;75.44
77147;BME280;66121;52.584;9.694;2023-01-13T07:52:41;99905.50;;;7.88;75.63
77147;BME280;66121;52.584;9.694;2023-01-13T07:55:07;99923.97;;;7.94;75.77
77147;BME280;66121;52.584;9.694;2023-01-13T07:57:32;99917.66;;;7.87;75.46
77147;BME280;66121;52.584;9.694;2023-01-13T07:59:58;99925.56;;;7.95;74.53
77147;BME280;66121;52.584;9.694;2023-01-13T08:02:23;99911.38;;;7.86;74.65
77147;BME280;66121;52.584;9.694;2023-01-13T08:04:48;99927.13;;;7.93;75.05
77147;BME280;66121;52.584;9.694;2023-01-13T08:07:14;99918.81;;;7.86;74.84
77147;BME280;66121;52.584;9.694;2023-01-13T08:09:39;99908.25;;;7.88;74.26
77147;BME280;66121;52.584;9.694;2023-01-13T08:12:04;99912.91;;;7.84;74.98
77147;BME280;66121;52.584;9.694;2023-01-13T08:14:48;99910.59;;;7.89;73.91
77147;BME280;66121;52.584;9.694;2023-01-13T08:17:15;99923.16;;;7.87;73.12
77147;BME280;66121;52.584;9.694;2023-01-13T08:19:41;99921.50;;;7.78;73.46
77147;BME280;66121;52.584;9.694;2023-01-13T08:22:06;99922.34;;;7.86;72.66
77147;BME280;66121;52.584;9.694;2023-01-13T08:24:31;99931.66;;;7.71;74.16
77147;BME280;66121;52.584;9.694;2023-01-13T08:26:56;99921.44;;;7.68;73.56
77147;BME280;66121;52.584;9.694;2023-01-13T08:29:22;99907.78;;;7.75;73.21
77147;BME280;66121;52.584;9.694;2023-01-13T08:31:47;99931.00;;;7.88;73.51
77147;BME280;66121;52.584;9.694;2023-01-13T08:34:12;99927.84;;;7.83;73.49
77147;BME280;66121;52.584;9.694;2023-01-13T08:36:38;99926.72;;;7.94;73.46
77147;BME280;66121;52.584;9.694;2023-01-13T08:39:03;99933.81;;;7.99;72.32
77147;BME280;66121;52.584;9.694;2023-01-13T08:41:28;99934.16;;;7.94;73.78
77147;BME280;66121;52.584;9.694;2023-01-13T08:44:12;99940.81;;;7.89;72.88
77147;BME280;66121;52.584;9.694;2023-01-13T08:46:38;99923.47;;;7.74;73.52
77147;BME280;66121;52.584;9.694;2023-01-13T08:49:03;99938.00;;;7.75;73.57
77147;BME280;66121;52.584;9.694;2023-01-13T08:51:28;99940.75;;;7.78;74.10
77147;BME280;66121;52.584;9.694;2023-01-13T08:53:54;99931.03;;;7.92;73.13
77147;BME280;66121;52.584;9.694;2023-01-13T08:56:19;99929.06;;;7.92;73.71
77147;BME280;66121;52.584;9.694;2023-01-13T08:58:45;99934.56;;;7.96;73.40
77147;BME280;66121;52.584;9.694;2023-01-13T09:01:12;99930.66;;;8.00;73.24
77147;BME280;66121;52.584;9.694;2023-01-13T09:03:39;99941.28;;;8.05;74.30
77147;BME280;66121;52.584;9.694;2023-01-13T09:06:06;99941.69;;;8.04;73.46
77147;BME280;66121;52.584;9.694;2023-01-13T09:08:31;99943.31;;;8.12;72.90
77147;BME280;66121;52.584;9.694;2023-01-13T09:10:57;99942.50;;;8.11;72.07
77147;BME280;66121;52.584;9.694;2023-01-13T09:13:22;99933.84;;;8.06;73.39
77147;BME280;66121;52.584;9.694;2023-01-13T09:15:47;99930.69;;;8.04;73.20
77147;BME280;66121;52.584;9.694;2023-01-13T09:18:13;99935.78;;;8.05;73.94
77147;BME280;66121;52.584;9.694;2023-01-13T09:20:38;99925.56;;;7.99;72.93
77147;BME280;66121;52.584;9.694;2023-01-13T09:23:04;99949.19;;;8.14;72.77
77147;BME280;66121;52.584;9.694;2023-01-13T09:25:30;99943.72;;;8.21;72.03
77147;BME280;66121;52.584;9.694;2023-01-13T09:27:56;99955.88;;;8.16;72.54
77147;BME280;66121;52.584;9.694;2023-01-13T09:30:22;99948.03;;;8.18;73.11
77147;BME280;66121;52.584;9.694;2023-01-13T09:32:47;99955.19;;;8.26;73.18
77147;BME280;66121;52.584;9.694;2023-01-13T09:35:12;99954.38;;;8.26;73.09
77147;BME280;66121;52.584;9.694;2023-01-13T09:37:39;99970.94;;;8.36;71.90
77147;BME280;66121;52.584;9.694;2023-01-13T09:40:10;99955.63;;;8.32;71.02
77147;BME280;66121;52.584;9.694;2023-01-13T09:42:48;99963.47;;;8.33;72.42
77147;BME280;66121;52.584;9.694;2023-01-13T09:45:46;99946.19;;;8.33;69.93
77147;BME280;66121;52.584;9.694;2023-01-13T09:48:18;99965.44;;;8.36;71.31
77147;BME280;66121;52.584;9.694;2023-01-13T09:50:53;99954.38;;;8.22;71.75
77147;BME280;66121;52.584;9.694;2023-01-13T09:53:29;99967.78;;;8.31;70.99
77147;BME280;66121;52.584;9.694;2023-01-13T09:55:56;99954.84;;;8.38;70.86
77147;BME280;66121;52.584;9.694;2023-01-13T09:58:21;99962.72;;;8.40;70.94
77147;BME280;66121;52.584;9.694;2023-01-13T10:03:36;99956.44;;;8.39;69.68
77147;BME280;66121;52.584;9.694;2023-01-13T10:06:18;99953.69;;;8.39;71.30
77147;BME280;66121;52.584;9.694;2023-01-13T10:08:46;99951.72;;;8.43;70.85
77147;BME280;66121;52.584;9.694;2023-01-13T10:11:23;99947.03;;;8.48;69.47
77147;BME280;66121;52.584;9.694;2023-01-13T10:17:33;99954.13;;;8.56;68.47
77147;BME280;66121;52.584;9.694;2023-01-13T10:22:46;99941.97;;;8.57;68.95
77147;BME280;66121;52.584;9.694;2023-01-13T10:28:06;99953.34;;;8.52;70.19
77147;BME280;66121;52.584;9.694;2023-01-13T10:30:35;99955.66;;;8.46;69.72
77147;BME280;66121;52.584;9.694;2023-01-13T10:33:14;99944.25;;;8.40;68.04
77147;BME280;66121;52.584;9.694;2023-01-13T10:38:19;99940.72;;;8.40;69.12
77147;BME280;66121;52.584;9.694;2023-01-13T10:40:51;99939.19;;;8.50;68.72
77147;BME280;66121;52.584;9.694;2023-01-13T10:43:17;99934.03;;;8.41;69.24
77147;BME280;66121;52.584;9.694;2023-01-13T10:45:51;99936.00;;;8.40;68.56
77147;BME280;66121;52.584;9.694;2023-01-13T10:48:18;99937.97;;;8.43;68.64
77147;BME280;66121;52.584;9.694;2023-01-13T10:50:45;99950.53;;;8.41;68.76
77147;BME280;66121;52.584;9.694;2023-01-13T10:53:22;99940.34;;;8.45;67.57
77147;BME280;66121;52.584;9.694;2023-01-13T10:56:00;99932.88;;;8.42;67.60
77147;BME280;66121;52.584;9.694;2023-01-13T10:58:26;99935.28;;;8.54;68.17
77147;BME280;66121;52.584;9.694;2023-01-13T11:01:03;99940.38;;;8.56;68.95
77147;BME280;66121;52.584;9.694;2023-01-13T11:03:39;99950.22;;;8.60;68.97
77147;BME280;66121;52.584;9.694;2023-01-13T11:06:06;99948.28;;;8.64;66.53
77147;BME280;66121;52.584;9.694;2023-01-13T11:08:41;99964.41;;;8.73;67.99
77147;BME280;66121;52.584;9.694;2023-01-13T11:14:01;99966.34;;;8.65;66.66
77147;BME280;66121;52.584;9.694;2023-01-13T11:16:50;99946.72;;;8.70;67.43
77147;BME280;66121;52.584;9.694;2023-01-13T11:19:18;99949.06;;;8.68;65.81
77147;BME280;66121;52.584;9.694;2023-01-13T11:27:10;99951.44;;;8.73;66.17
77147;BME280;66121;52.584;9.694;2023-01-13T11:32:11;99945.94;;;8.70;66.34
77147;BME280;66121;52.584;9.694;2023-01-13T11:34:39;99972.22;;;8.60;67.14
77147;BME280;66121;52.584;9.694;2023-01-13T11:37:17;99963.16;;;8.56;66.88
77147;BME280;66121;52.584;9.694;2023-01-13T11:42:48;99956.13;;;8.59;66.35
77147;BME280;66121;52.584;9.694;2023-01-13T11:45:23;99947.47;;;8.60;66.38
77147;BME280;66121;52.584;9.694;2023-01-13T11:47:57;99967.50;;;8.57;67.48
77147;BME280;66121;52.584;9.694;2023-01-13T11:50:39;99955.72;;;8.60;66.71
77147;BME280;66121;52.584;9.694;2023-01-13T11:53:17;99960.84;;;8.65;66.54
77147;BME280;66121;52.584;9.694;2023-01-13T11:56:01;99963.16;;;8.56;67.67
77147;BME280;66121;52.584;9.694;2023-01-13T12:01:10;99969.06;;;8.55;67.84
77147;BME280;66121;52.584;9.694;2023-01-13T12:03:47;99961.97;;;8.47;68.44
77147;BME280;66121;52.584;9.694;2023-01-13T12:06:22;99957.25;;;8.51;67.22
77147;BME280;66121;52.584;9.694;2023-01-13T12:12:18;99956.47;;;8.47;68.64
77147;BME280;66121;52.584;9.694;2023-01-13T12:23:34;99970.56;;;8.41;68.36
77147;BME280;66121;52.584;9.694;2023-01-13T12:26:08;99973.66;;;8.33;68.79
77147;BME280;66121;52.584;9.694;2023-01-13T12:28:52;99966.63;;;8.39;68.41
77147;BME280;66121;52.584;9.694;2023-01-13T12:31:19;99956.44;;;8.39;69.08
77147;BME280;66121;52.584;9.694;2023-01-13T12:42:20;99974.91;;;8.46;69.42
77147;BME280;66121;52.584;9.694;2023-01-13T12:47:36;99980.41;;;8.43;70.18
77147;BME280;66121;52.584;9.694;2023-01-13T12:52:46;99971.38;;;8.42;71.02
77147;BME280;66121;52.584;9.694;2023-01-13T12:55:14;99989.28;;;8.22;72.73
77147;BME280;66121;52.584;9.694;2023-01-13T12:57:55;99997.50;;;8.18;74.75
77147;BME280;66121;52.584;9.694;2023-01-13T13:00:21;99988.75;;;7.99;75.72
77147;BME280;66121;52.584;9.694;2023-01-13T13:05:47;99990.69;;;7.98;76.04
77147;BME280;66121;52.584;9.694;2023-01-13T13:08:21;99996.22;;;8.02;75.96
77147;BME280;66121;52.584;9.694;2023-01-13T13:18:49;100018.69;;;8.18;76.03
77147;BME280;66121;52.584;9.694;2023-01-13T13:21:14;100004.94;;;8.14;75.30
77147;BME280;66121;52.584;9.694;2023-01-13T13:26:28;100011.63;;;8.17;75.29
77147;BME280;66121;52.584;9.694;2023-01-13T13:29:15;100015.09;;;8.10;76.09
77147;BME280;66121;52.584;9.694;2023-01-13T13:32:58;100022.88;;;7.98;76.03
77147;BME280;66121;52.584;9.694;2023-01-13T13:40:43;100009.56;;;8.00;74.99
77147;BME280;66121;52.584;9.694;2023-01-13T13:43:30;100022.09;;;7.97;75.55
77147;BME280;66121;52.584;9.694;2023-01-13T13:46:29;100023.31;;;8.00;76.91
77147;BME280;66121;52.584;9.694;2023-01-13T13:51:47;100031.13;;;7.98;76.19
77147;BME280;66121;52.584;9.694;2023-01-13T13:54:19;100026.78;;;7.93;75.84
77147;BME280;66121;52.584;9.694;2023-01-13T13:56:46;100027.50;;;7.87;76.11
77147;BME280;66121;52.584;9.694;2023-01-13T13:59:17;100040.56;;;8.00;76.10
77147;BME280;66121;52.584;9.694;2023-01-13T14:01:44;100039.78;;;8.00;76.57
77147;BME280;66121;52.584;9.694;2023-01-13T14:04:17;100045.63;;;7.95;76.67
77147;BME280;66121;52.584;9.694;2023-01-13T14:06:51;100046.00;;;7.93;77.04
77147;BME280;66121;52.584;9.694;2023-01-13T14:09:18;100062.06;;;7.88;78.34
77147;BME280;66121;52.584;9.694;2023-01-13T14:12:00;100059.19;;;7.73;79.92
77147;BME280;66121;52.584;9.694;2023-01-13T14:14:26;100065.91;;;7.79;78.33
77147;BME280;66121;52.584;9.694;2023-01-13T14:16:51;100059.88;;;7.63;80.21
77147;BME280;66121;52.584;9.694;2023-01-13T14:19:34;100061.41;;;7.61;79.70
77147;BME280;66121;52.584;9.694;2023-01-13T14:22:01;100060.16;;;7.51;79.98
77147;BME280;66121;52.584;9.694;2023-01-13T14:24:28;100070.03;;;7.59;80.95
77147;BME280;66121;52.584;9.694;2023-01-13T14:27:06;100045.28;;;7.52;79.43
77147;BME280;66121;52.584;9.694;2023-01-13T14:29:32;100048.31;;;7.44;80.78
77147;BME280;66121;52.584;9.694;2023-01-13T14:31:58;100063.28;;;7.50;80.27
77147;BME280;66121;52.584;9.694;2023-01-13T14:34:26;100072.72;;;7.52;79.55
77147;BME280;66121;52.584;9.694;2023-01-13T14:36:52;100072.31;;;7.50;79.17
77147;BME280;66121;52.584;9.694;2023-01-13T14:39:32;100076.22;;;7.49;79.64
77147;BME280;66121;52.584;9.694;2023-01-13T14:41:58;100082.84;;;7.48;79.81
77147;BME280;66121;52.584;9.694;2023-01-13T14:44:33;100084.06;;;7.51;79.92
77147;BME280;66121;52.584;9.694;2023-01-13T14:47:03;100090.81;;;7.60;78.84
77147;BME280;66121;52.584;9.694;2023-01-13T14:49:53;100086.13;;;7.61;78.37
77147;BME280;66121;52.584;9.694;2023-01-13T14:52:24;100096.75;;;7.66;78.14
77147;BME280;66121;52.584;9.694;2023-01-13T14:57:44;100100.78;;;7.75;77.02
77147;BME280;66121;52.584;9.694;2023-01-13T15:10:59;100113.00;;;7.82;75.98
77147;BME280;66121;52.584;9.694;2023-01-13T15:15:56;100111.06;;;7.82;74.99
77147;BME280;66121;52.584;9.694;2023-01-13T15:18:22;100122.84;;;7.83;75.66
77147;BME280;66121;52.584;9.694;2023-01-13T15:20:47;100126.69;;;7.78;75.82
77147;BME280;66121;52.584;9.694;2023-01-13T15:23:15;100124.44;;;7.87;74.57